sensor_id;sensor_type;location;lat;lon;timestamp;temperature;humidity
61398;DHT22;47267;48.130;-2.040;2022-07-01T13:29:38;22.10;52.30
61398;DHT22;47267;48.130;-2.040;2022-07-01T13:32:05;20.60;54.10
61398;DHT22;47267;48.130;-2.040;2022-07-01T13:34:33;20.50;54.00
61398;DHT22;47267;48.130;-2.040;2022-07-01T13:36:59;20.50;54.50
61398;DHT22;47267;48.130;-2.040;2022-07-01T13:44:17;20.50;54.40
61398;DHT22;47267;48.130;-2.040;2022-07-01T13:46:42;20.60;54.50
61398;DHT22;47267;48.130;-2.040;2022-07-01T13:49:08;20.60;54.50
61398;DHT22;47267;48.130;-2.040;2022-07-01T13:51:34;20.60;54.20
61398;DHT22;47267;48.130;-2.040;2022-07-01T13:54:00;20.60;54.40
61398;DHT22;47267;48.130;-2.040;2022-07-01T13:56:26;20.60;54.40
61398;DHT22;47267;48.130;-2.040;2022-07-01T13:58:53;20.60;54.40
61398;DHT22;47267;48.130;-2.040;2022-07-01T14:08:38;20.60;54.20
61398;DHT22;47267;48.130;-2.040;2022-07-01T14:11:04;20.70;54.40
61398;DHT22;47267;48.130;-2.040;2022-07-01T14:13:30;20.70;54.50
61398;DHT22;47267;48.130;-2.040;2022-07-01T14:16:07;20.70;54.50
61398;DHT22;47267;48.130;-2.040;2022-07-01T14:18:33;20.70;54.50
61398;DHT22;47267;48.130;-2.040;2022-07-01T14:21:00;20.70;54.60
61398;DHT22;47267;48.130;-2.040;2022-07-01T14:23:26;20.70;54.50
61398;DHT22;47267;48.130;-2.040;2022-07-01T14:25:52;20.70;54.50
61398;DHT22;47267;48.130;-2.040;2022-07-01T14:28:18;20.70;54.50
61398;DHT22;47267;48.130;-2.040;2022-07-01T14:30:44;20.80;54.50
61398;DHT22;47267;48.130;-2.040;2022-07-01T14:33:10;20.80;54.50
61398;DHT22;47267;48.130;-2.040;2022-07-01T14:40:28;20.80;54.50
61398;DHT22;47267;48.130;-2.040;2022-07-01T14:42:54;20.80;54.40
61398;DHT22;47267;48.130;-2.040;2022-07-01T14:45:19;20.80;54.40
61398;DHT22;47267;48.130;-2.040;2022-07-01T14:47:45;20.80;55.00
61398;DHT22;47267;48.130;-2.040;2022-07-01T14:50:11;20.90;54.40
61398;DHT22;47267;48.130;-2.040;2022-07-01T14:52:38;20.90;54.40
61398;DHT22;47267;48.130;-2.040;2022-07-01T14:55:05;20.90;54.40
61398;DHT22;47267;48.130;-2.040;2022-07-01T14:57:30;20.90;54.30
61398;DHT22;47267;48.130;-2.040;2022-07-01T14:59:56;20.90;54.30
61398;DHT22;47267;48.130;-2.040;2022-07-01T15:02:26;20.90;54.30
61398;DHT22;47267;48.130;-2.040;2022-07-01T15:04:52;21.00;54.20
61398;DHT22;47267;48.130;-2.040;2022-07-01T15:07:21;21.00;54.10
61398;DHT22;47267;48.130;-2.040;2022-07-01T15:09:48;21.00;53.30
61398;DHT22;47267;48.130;-2.040;2022-07-01T15:12:14;21.00;53.80
61398;DHT22;47267;48.130;-2.040;2022-07-01T15:14:41;21.00;53.50
61398;DHT22;47267;48.130;-2.040;2022-07-01T15:17:07;21.00;53.70
61398;DHT22;47267;48.130;-2.040;2022-07-01T15:19:32;21.00;53.80
61398;DHT22;47267;48.130;-2.040;2022-07-01T15:21:58;21.00;53.80
61398;DHT22;47267;48.130;-2.040;2022-07-01T15:24:25;21.00;53.40
61398;DHT22;47267;48.130;-2.040;2022-07-01T15:26:52;21.00;53.00
61398;DHT22;47267;48.130;-2.040;2022-07-01T15:29:19;21.10;53.40
61398;DHT22;47267;48.130;-2.040;2022-07-01T15:31:45;21.10;53.50
61398;DHT22;47267;48.130;-2.040;2022-07-01T15:34:11;21.10;53.50
61398;DHT22;47267;48.130;-2.040;2022-07-01T15:36:39;21.10;53.50
61398;DHT22;47267;48.130;-2.040;2022-07-01T15:39:05;21.10;53.50
61398;DHT22;47267;48.130;-2.040;2022-07-01T15:41:32;21.20;53.60
61398;DHT22;47267;48.130;-2.040;2022-07-01T15:43:59;21.20;53.30
61398;DHT22;47267;48.130;-2.040;2022-07-01T15:46:25;21.20;53.60
61398;DHT22;47267;48.130;-2.040;2022-07-01T15:48:51;21.20;53.60
61398;DHT22;47267;48.130;-2.040;2022-07-01T15:51:17;21.20;53.60
61398;DHT22;47267;48.130;-2.040;2022-07-01T15:53:43;21.20;53.60
61398;DHT22;47267;48.130;-2.040;2022-07-01T15:56:09;21.20;53.60
61398;DHT22;47267;48.130;-2.040;2022-07-01T15:58:34;21.30;53.70
61398;DHT22;47267;48.130;-2.040;2022-07-01T16:01:00;21.20;53.60
61398;DHT22;47267;48.130;-2.040;2022-07-01T16:03:26;21.30;53.60
61398;DHT22;47267;48.130;-2.040;2022-07-01T16:06:05;21.30;53.70
61398;DHT22;47267;48.130;-2.040;2022-07-01T16:08:36;21.30;53.60
61398;DHT22;47267;48.130;-2.040;2022-07-01T16:11:06;21.30;53.60
61398;DHT22;47267;48.130;-2.040;2022-07-01T16:13:34;21.30;53.70
61398;DHT22;47267;48.130;-2.040;2022-07-01T16:16:01;21.30;53.60
61398;DHT22;47267;48.130;-2.040;2022-07-01T16:18:29;21.40;53.70
61398;DHT22;47267;48.130;-2.040;2022-07-01T16:21:00;21.30;53.60
61398;DHT22;47267;48.130;-2.040;2022-07-01T16:23:36;21.30;53.50
61398;DHT22;47267;48.130;-2.040;2022-07-01T16:26:02;21.40;53.60
61398;DHT22;47267;48.130;-2.040;2022-07-01T16:28:30;21.40;53.60
61398;DHT22;47267;48.130;-2.040;2022-07-01T16:30:58;21.40;53.60
61398;DHT22;47267;48.130;-2.040;2022-07-01T16:33:26;21.40;53.60
61398;DHT22;47267;48.130;-2.040;2022-07-01T16:36:01;21.40;53.10
61398;DHT22;47267;48.130;-2.040;2022-07-01T16:38:31;21.40;53.60
61398;DHT22;47267;48.130;-2.040;2022-07-01T16:41:10;21.40;53.50
61398;DHT22;47267;48.130;-2.040;2022-07-01T16:43:47;21.40;53.50
61398;DHT22;47267;48.130;-2.040;2022-07-01T16:46:20;21.40;53.50
61398;DHT22;47267;48.130;-2.040;2022-07-01T16:48:48;21.40;53.20
61398;DHT22;47267;48.130;-2.040;2022-07-01T16:51:17;21.40;53.20
61398;DHT22;47267;48.130;-2.040;2022-07-01T16:53:47;21.40;53.20
61398;DHT22;47267;48.130;-2.040;2022-07-01T16:56:21;21.50;53.20
61398;DHT22;47267;48.130;-2.040;2022-07-01T16:59:01;21.40;53.10
61398;DHT22;47267;48.130;-2.040;2022-07-01T17:01:31;21.50;53.20
61398;DHT22;47267;48.130;-2.040;2022-07-01T17:03:58;21.50;53.20
61398;DHT22;47267;48.130;-2.040;2022-07-01T17:06:24;21.50;53.40
61398;DHT22;47267;48.130;-2.040;2022-07-01T17:08:52;21.50;53.30
61398;DHT22;47267;48.130;-2.040;2022-07-01T17:11:19;21.50;53.40
61398;DHT22;47267;48.130;-2.040;2022-07-01T17:13:49;21.50;53.40
61398;DHT22;47267;48.130;-2.040;2022-07-01T17:16:16;21.50;53.40
61398;DHT22;47267;48.130;-2.040;2022-07-01T17:18:46;21.50;53.40
61398;DHT22;47267;48.130;-2.040;2022-07-01T17:21:14;21.50;53.40
61398;DHT22;47267;48.130;-2.040;2022-07-01T17:23:50;21.50;53.40
61398;DHT22;47267;48.130;-2.040;2022-07-01T17:26:22;21.50;53.40
61398;DHT22;47267;48.130;-2.040;2022-07-01T17:29:12;21.50;53.40
61398;DHT22;47267;48.130;-2.040;2022-07-01T17:31:53;21.60;53.40
61398;DHT22;47267;48.130;-2.040;2022-07-01T17:34:26;21.60;53.40
61398;DHT22;47267;48.130;-2.040;2022-07-01T17:36:52;21.60;53.40
61398;DHT22;47267;48.130;-2.040;2022-07-01T17:39:18;21.60;53.40
61398;DHT22;47267;48.130;-2.040;2022-07-01T17:41:52;21.60;53.40
61398;DHT22;47267;48.130;-2.040;2022-07-01T17:44:20;21.60;53.40
61398;DHT22;47267;48.130;-2.040;2022-07-01T17:46:46;21.60;53.40
61398;DHT22;47267;48.130;-2.040;2022-07-01T17:49:18;21.60;53.40
61398;DHT22;47267;48.130;-2.040;2022-07-01T17:51:44;21.60;53.40
61398;DHT22;47267;48.130;-2.040;2022-07-01T17:54:19;21.60;53.40
61398;DHT22;47267;48.130;-2.040;2022-07-01T17:56:46;21.60;53.40
61398;DHT22;47267;48.130;-2.040;2022-07-01T17:59:15;21.60;53.40
61398;DHT22;47267;48.130;-2.040;2022-07-01T18:01:43;21.60;53.40
61398;DHT22;47267;48.130;-2.040;2022-07-01T18:04:09;21.60;53.40
61398;DHT22;47267;48.130;-2.040;2022-07-01T18:06:36;21.60;53.40
61398;DHT22;47267;48.130;-2.040;2022-07-01T18:09:03;21.60;53.40
61398;DHT22;47267;48.130;-2.040;2022-07-01T18:22:39;21.60;53.30
61398;DHT22;47267;48.130;-2.040;2022-07-01T18:25:18;21.60;53.30
61398;DHT22;47267;48.130;-2.040;2022-07-01T18:27:45;21.60;53.30
61398;DHT22;47267;48.130;-2.040;2022-07-01T18:30:17;21.60;53.30
61398;DHT22;47267;48.130;-2.040;2022-07-01T18:32:46;21.60;53.30
61398;DHT22;47267;48.130;-2.040;2022-07-01T18:35:14;21.60;53.30
61398;DHT22;47267;48.130;-2.040;2022-07-01T18:40:12;21.70;53.30
61398;DHT22;47267;48.130;-2.040;2022-07-01T18:42:39;21.70;53.20
61398;DHT22;47267;48.130;-2.040;2022-07-01T18:45:06;21.70;53.30
61398;DHT22;47267;48.130;-2.040;2022-07-01T18:47:33;21.70;53.00
61398;DHT22;47267;48.130;-2.040;2022-07-01T18:49:59;21.70;53.30
61398;DHT22;47267;48.130;-2.040;2022-07-01T18:52:25;21.70;53.30
61398;DHT22;47267;48.130;-2.040;2022-07-01T18:54:51;21.70;53.20
61398;DHT22;47267;48.130;-2.040;2022-07-01T18:57:17;21.70;53.20
61398;DHT22;47267;48.130;-2.040;2022-07-01T18:59:43;21.70;53.20
61398;DHT22;47267;48.130;-2.040;2022-07-01T19:02:11;21.60;53.20
61398;DHT22;47267;48.130;-2.040;2022-07-01T19:04:37;21.70;53.20
61398;DHT22;47267;48.130;-2.040;2022-07-01T19:07:03;21.70;53.20
61398;DHT22;47267;48.130;-2.040;2022-07-01T19:09:29;21.70;53.20
61398;DHT22;47267;48.130;-2.040;2022-07-01T19:11:55;21.70;53.20
61398;DHT22;47267;48.130;-2.040;2022-07-01T20:00:45;21.70;53.20
61398;DHT22;47267;48.130;-2.040;2022-07-01T20:03:11;21.60;53.60
61398;DHT22;47267;48.130;-2.040;2022-07-01T20:05:36;21.60;53.00
61398;DHT22;47267;48.130;-2.040;2022-07-01T20:08:02;21.60;53.00
61398;DHT22;47267;48.130;-2.040;2022-07-01T20:10:28;21.60;53.00
61398;DHT22;47267;48.130;-2.040;2022-07-01T20:12:54;21.60;53.00
61398;DHT22;47267;48.130;-2.040;2022-07-01T20:15:23;21.60;53.00
61398;DHT22;47267;48.130;-2.040;2022-07-01T20:17:50;21.60;53.00
61398;DHT22;47267;48.130;-2.040;2022-07-01T20:20:16;21.60;53.00
61398;DHT22;47267;48.130;-2.040;2022-07-01T20:27:36;21.60;53.00
